Time;durP1;ratioP1;P1;durP2;ratioP2;P2;SDS_P1;SDS_P2;PMS_P1;PMS_P2;Temp;Humidity;BMP_temperature;BMP_pressure;BME280_temperature;BME280_humidity;BME280_pressure;Samples;Min_cycle;Max_cycle;Signal;HPM_P1;HPM_P2
2023/08/04 00:00:57;;;;;;;640.03;611.73;;;15.10;99.90;;;;;;4974348;28;20534;-72
2023/08/04 00:03:24;;;;;;;644.40;615.70;;;15.10;99.90;;;;;;4987069;28;20454;-72
2023/08/04 00:05:51;;;;;;;627.63;600.03;;;15.10;99.90;;;;;;4981258;28;20482;-72
2023/08/04 00:08:19;;;;;;;634.90;606.80;;;15.10;99.90;;;;;;4975314;28;20455;-72
2023/08/04 00:10:46;;;;;;;620.50;593.10;;;15.10;99.90;;;;;;4983862;28;20825;-72
2023/08/04 00:13:13;;;;;;;606.63;579.87;;;15.10;99.90;;;;;;4977892;28;20502;-72
2023/08/04 00:15:40;;;;;;;605.37;578.70;;;15.10;99.90;;;;;;4983247;28;20478;-72
2023/08/04 00:18:07;;;;;;;623.53;595.73;;;15.10;99.90;;;;;;4982766;28;20473;-72
2023/08/04 00:20:34;;;;;;;629.47;601.30;;;15.10;99.90;;;;;;4992598;28;20454;-72
2023/08/04 00:23:00;;;;;;;625.40;597.33;;;15.00;99.90;;;;;;4990010;28;20458;-72
2023/08/04 00:25:29;;;;;;;626.47;598.40;;;15.10;99.90;;;;;;4976182;28;20475;-72
2023/08/04 00:27:56;;;;;;;634.67;605.47;;;15.10;99.90;;;;;;4984131;28;20447;-72
2023/08/04 00:30:22;;;;;;;635.40;606.60;;;15.10;99.90;;;;;;4984787;28;20982;-72
2023/08/04 00:32:49;;;;;;;649.20;619.50;;;15.10;99.90;;;;;;4984130;28;20477;-72
2023/08/04 00:35:16;;;;;;;633.20;604.30;;;15.10;99.90;;;;;;4977667;28;20521;-73
2023/08/04 00:37:43;;;;;;;627.90;599.20;;;15.10;99.90;;;;;;4981785;28;20455;-73
2023/08/04 00:40:10;;;;;;;637.83;608.47;;;15.10;99.90;;;;;;4979956;28;20455;-73
2023/08/04 00:42:39;;;;;;;637.77;608.50;;;15.10;99.90;;;;;;4974915;28;20459;-72
2023/08/04 00:45:07;;;;;;;656.37;625.90;;;15.10;99.90;;;;;;4973964;28;20474;-73
2023/08/04 00:47:35;;;;;;;649.87;620.07;;;15.10;99.90;;;;;;4987916;28;20538;-72
2023/08/04 00:50:04;;;;;;;649.00;619.23;;;15.10;99.90;;;;;;4973958;28;20494;-72
2023/08/04 00:52:31;;;;;;;606.17;578.97;;;15.10;99.90;;;;;;4974845;28;20473;-72
2023/08/04 00:54:58;;;;;;;604.07;577.33;;;15.00;99.90;;;;;;4987595;28;20486;-73
2023/08/04 00:57:26;;;;;;;571.13;546.07;;;15.00;99.90;;;;;;4992547;28;20456;-73
2023/08/04 00:59:56;;;;;;;579.27;553.57;;;15.00;99.90;;;;;;4992414;28;20454;-72
2023/08/04 01:02:23;;;;;;;611.80;584.57;;;15.00;99.90;;;;;;4984080;28;20458;-72
2023/08/04 01:04:50;;;;;;;592.77;566.60;;;15.00;99.90;;;;;;4988726;28;20453;-73
2023/08/04 01:07:22;;;;;;;574.03;548.63;;;15.00;99.90;;;;;;4983129;28;20459;-73
2023/08/04 01:09:58;;;;;;;614.60;586.63;;;14.90;99.90;;;;;;4976463;28;20455;-73
2023/08/04 01:12:37;;;;;;;623.37;594.97;;;14.90;99.90;;;;;;4977584;28;20513;-73
2023/08/04 01:15:09;;;;;;;626.30;598.10;;;14.80;99.90;;;;;;4986854;28;20505;-73
2023/08/04 01:17:36;;;;;;;638.67;609.67;;;14.80;99.90;;;;;;4995629;28;20469;-73
2023/08/04 01:20:04;;;;;;;648.03;618.10;;;14.70;99.90;;;;;;4976243;28;20455;-73
2023/08/04 01:22:34;;;;;;;657.00;626.80;;;14.70;99.90;;;;;;4983152;28;20463;-73
2023/08/04 01:25:01;;;;;;;655.17;624.97;;;14.70;99.90;;;;;;4993926;28;20501;-73
2023/08/04 01:27:33;;;;;;;635.67;607.00;;;14.70;99.90;;;;;;4987467;28;20473;-73
2023/08/04 01:30:02;;;;;;;638.93;610.07;;;14.60;99.90;;;;;;4976008;28;20466;-73
2023/08/04 01:32:30;;;;;;;653.73;623.73;;;14.60;99.90;;;;;;4983763;28;20450;-73
2023/08/04 01:34:57;;;;;;;654.30;624.70;;;14.60;99.90;;;;;;4988349;28;20469;-74
2023/08/04 01:37:24;;;;;;;643.77;614.87;;;14.60;99.90;;;;;;4989039;28;20904;-72
2023/08/04 01:39:52;;;;;;;666.80;636.40;;;14.60;99.90;;;;;;4977873;28;20461;-73
2023/08/04 01:42:19;;;;;;;680.87;649.57;;;14.60;99.90;;;;;;4989490;28;20456;-73
2023/08/04 01:44:46;;;;;;;673.43;642.43;;;14.60;99.90;;;;;;4978615;28;20462;-73
2023/08/04 01:47:13;;;;;;;652.10;622.53;;;14.60;99.90;;;;;;4990080;28;20979;-72
2023/08/04 01:49:40;;;;;;;668.47;637.67;;;14.70;99.90;;;;;;4982016;28;20530;-73
2023/08/04 01:52:07;;;;;;;659.10;628.80;;;14.70;99.90;;;;;;4981926;28;20452;-72
2023/08/04 01:54:34;;;;;;;672.17;641.10;;;14.70;99.90;;;;;;4988757;28;20509;-73
2023/08/04 01:57:02;;;;;;;675.43;644.20;;;14.70;99.90;;;;;;4985259;28;20946;-73
2023/08/04 01:59:29;;;;;;;636.63;607.83;;;14.70;99.90;;;;;;4983067;28;20466;-73
2023/08/04 02:01:56;;;;;;;632.30;603.93;;;14.70;99.90;;;;;;4991008;28;20541;-72
2023/08/04 02:04:23;;;;;;;620.77;593.17;;;14.80;99.90;;;;;;4986926;28;20537;-73
2023/08/04 02:06:50;;;;;;;635.40;606.93;;;14.70;99.90;;;;;;4981589;28;20987;-72
2023/08/04 02:09:16;;;;;;;621.73;594.23;;;14.80;99.90;;;;;;4988263;28;20451;-72
2023/08/04 02:11:43;;;;;;;623.77;595.87;;;14.80;99.90;;;;;;4977832;28;20462;-72
2023/08/04 02:14:12;;;;;;;597.47;571.40;;;14.70;99.90;;;;;;4987359;28;20534;-72
2023/08/04 02:16:39;;;;;;;607.90;581.00;;;14.70;99.90;;;;;;4985228;28;20451;-72
2023/08/04 02:19:08;;;;;;;574.77;550.07;;;14.70;99.90;;;;;;4989583;28;20459;-72
2023/08/04 02:21:35;;;;;;;582.00;556.80;;;14.70;99.90;;;;;;4977842;28;20966;-71
2023/08/04 02:24:02;;;;;;;573.20;548.60;;;14.70;99.90;;;;;;4987326;28;20462;-72
2023/08/04 02:26:29;;;;;;;576.60;551.80;;;14.70;99.90;;;;;;4982298;28;20479;-72
2023/08/04 02:28:56;;;;;;;583.80;558.60;;;14.60;99.90;;;;;;4990982;28;20991;-72
2023/08/04 02:31:29;;;;;;;587.67;562.30;;;14.60;99.90;;;;;;4981576;28;20822;-72
2023/08/04 02:33:56;;;;;;;576.30;551.63;;;14.60;99.90;;;;;;4990234;28;20518;-72
2023/08/04 02:36:23;;;;;;;567.83;543.73;;;14.50;99.90;;;;;;4977805;28;20455;-72
2023/08/04 02:38:50;;;;;;;595.80;569.90;;;14.50;99.90;;;;;;4983406;28;20458;-73
2023/08/04 02:41:17;;;;;;;593.37;567.60;;;14.50;99.90;;;;;;4977713;28;20874;-72
2023/08/04 02:43:44;;;;;;;609.43;582.67;;;14.50;99.90;;;;;;4992853;28;20462;-72
2023/08/04 02:46:11;;;;;;;632.37;604.17;;;14.50;99.90;;;;;;4983299;28;20557;-72
2023/08/04 02:48:39;;;;;;;641.70;613.07;;;14.50;99.90;;;;;;4981414;28;20462;-72
2023/08/04 02:51:08;;;;;;;621.53;594.10;;;14.50;99.90;;;;;;4983758;28;20459;-72
2023/08/04 02:53:36;;;;;;;639.77;611.13;;;14.50;99.90;;;;;;4986600;28;20542;-73
2023/08/04 02:56:10;;;;;;;627.20;599.30;;;14.50;99.90;;;;;;4985301;28;20542;-72
2023/08/04 02:58:37;;;;;;;633.60;605.50;;;14.60;99.90;;;;;;4993422;28;20451;-73
2023/08/04 03:01:04;;;;;;;639.90;611.20;;;14.60;99.90;;;;;;4977263;28;20461;-72
2023/08/04 03:03:31;;;;;;;637.63;609.10;;;14.60;99.90;;;;;;4993598;28;20529;-71
2023/08/04 03:05:59;;;;;;;636.53;607.87;;;14.60;99.90;;;;;;4979503;28;20470;-72
2023/08/04 03:08:27;;;;;;;644.63;615.53;;;14.60;99.90;;;;;;4980935;28;20466;-73
2023/08/04 03:10:54;;;;;;;626.47;598.50;;;14.60;99.90;;;;;;4978257;28;20486;-73
2023/08/04 03:13:21;;;;;;;610.50;583.50;;;14.60;99.90;;;;;;4990712;28;20786;-74
2023/08/04 03:15:54;;;;;;;606.30;579.60;;;14.60;99.90;;;;;;4990333;28;20447;-74
2023/08/04 03:18:21;;;;;;;598.37;572.07;;;14.60;99.90;;;;;;4973711;28;20498;-73
2023/08/04 03:20:47;;;;;;;624.87;596.87;;;14.60;99.90;;;;;;4989883;28;20545;-74
2023/08/04 03:23:16;;;;;;;654.83;624.97;;;14.60;99.90;;;;;;4993308;28;20537;-75
2023/08/04 03:25:42;;;;;;;666.23;635.67;;;14.60;99.90;;;;;;4993387;28;20593;-75
2023/08/04 03:28:09;;;;;;;598.97;572.33;;;14.60;99.90;;;;;;4993281;28;20482;-74
2023/08/04 03:30:36;;;;;;;628.77;600.33;;;14.60;99.90;;;;;;4992905;28;20451;-74
2023/08/04 03:33:03;;;;;;;615.73;588.03;;;14.60;99.90;;;;;;4993049;28;20454;-74
2023/08/04 03:35:30;;;;;;;617.67;589.87;;;14.60;99.90;;;;;;4988287;28;20993;-74
2023/08/04 03:37:57;;;;;;;635.20;606.10;;;14.60;99.90;;;;;;4973822;28;20451;-75
2023/08/04 03:40:25;;;;;;;634.50;605.50;;;14.50;99.90;;;;;;4974480;28;20455;-74
2023/08/04 03:42:52;;;;;;;609.03;581.73;;;14.60;99.90;;;;;;4986911;28;20454;-74
2023/08/04 03:45:19;;;;;;;616.10;588.30;;;14.60;99.90;;;;;;4975232;28;20465;-74
2023/08/04 03:47:46;;;;;;;621.50;593.50;;;14.50;99.90;;;;;;4987235;28;20485;-74
2023/08/04 03:50:13;;;;;;;644.73;615.17;;;14.50;99.90;;;;;;4992899;28;20450;-72
2023/08/04 03:52:40;;;;;;;645.73;616.10;;;14.50;99.90;;;;;;4992905;28;20490;-74
2023/08/04 03:55:07;;;;;;;649.60;619.80;;;14.50;99.90;;;;;;4992895;28;20455;-73
2023/08/04 03:57:35;;;;;;;619.70;591.77;;;14.50;99.90;;;;;;4992832;28;20450;-73
2023/08/04 04:00:03;;;;;;;636.03;607.03;;;14.50;99.90;;;;;;4981463;28;20543;-73
2023/08/04 04:02:30;;;;;;;626.50;597.80;;;14.50;99.90;;;;;;4973326;28;20459;-73
2023/08/04 04:04:57;;;;;;;624.43;595.73;;;14.50;99.90;;;;;;4973533;28;20451;-73
2023/08/04 04:07:24;;;;;;;603.73;576.37;;;14.50;99.90;;;;;;4973361;28;21010;-74
2023/08/04 04:09:51;;;;;;;595.90;568.90;;;14.50;99.90;;;;;;4982181;28;20815;-73
2023/08/04 04:12:18;;;;;;;558.23;533.63;;;14.50;99.90;;;;;;4992497;28;20461;-73
2023/08/04 04:14:46;;;;;;;538.30;514.50;;;14.50;99.90;;;;;;4992928;28;20474;-73
2023/08/04 04:17:13;;;;;;;597.03;569.87;;;14.50;99.90;;;;;;4992745;28;20958;-73
2023/08/04 04:19:40;;;;;;;580.90;554.50;;;14.60;99.90;;;;;;4981566;28;20538;-73
2023/08/04 04:22:09;;;;;;;568.80;543.20;;;14.60;99.90;;;;;;4985024;28;20529;-73
2023/08/04 04:24:36;;;;;;;562.17;537.07;;;14.60;99.90;;;;;;4992613;28;20450;-74
2023/08/04 04:27:03;;;;;;;556.00;531.17;;;14.60;99.90;;;;;;4991508;28;20478;-72
2023/08/04 04:29:30;;;;;;;556.60;531.67;;;14.60;99.90;;;;;;4980760;28;20451;-73
2023/08/04 04:31:58;;;;;;;537.97;514.07;;;14.60;99.90;;;;;;4973254;28;20502;-74
2023/08/04 04:34:25;;;;;;;529.67;506.10;;;14.60;99.90;;;;;;4973089;28;20970;-74
2023/08/04 04:36:54;;;;;;;526.40;503.10;;;14.60;99.90;;;;;;4975080;28;20450;-74
2023/08/04 04:39:21;;;;;;;522.27;499.20;;;14.60;99.90;;;;;;4990567;28;20446;-74
2023/08/04 04:41:48;;;;;;;499.00;477.40;;;14.60;99.90;;;;;;4982205;28;20492;-73
2023/08/04 04:44:15;;;;;;;499.57;477.77;;;14.70;99.90;;;;;;4977040;28;20455;-73
2023/08/04 04:46:42;;;;;;;492.67;471.30;;;14.70;99.90;;;;;;4976685;28;20479;-73
2023/08/04 04:49:10;;;;;;;504.57;482.23;;;14.70;99.90;;;;;;4976689;28;20748;-73
2023/08/04 04:51:37;;;;;;;465.67;445.63;;;14.70;99.90;;;;;;4977081;28;20451;-74
2023/08/04 04:54:04;;;;;;;467.40;447.37;;;14.80;99.90;;;;;;4975919;28;20542;-73
2023/08/04 04:56:31;;;;;;;463.77;443.77;;;14.90;99.90;;;;;;4990840;28;20541;-73
2023/08/04 04:58:57;;;;;;;474.20;453.40;;;14.90;99.90;;;;;;4987655;28;20538;-74
2023/08/04 05:01:24;;;;;;;491.97;469.53;;;15.00;99.90;;;;;;4976385;28;20461;-73
2023/08/04 05:03:51;;;;;;;473.70;452.70;;;15.10;99.90;;;;;;4976543;28;20455;-73
2023/08/04 05:06:19;;;;;;;383.60;367.33;;;15.10;99.90;;;;;;4976586;28;20483;-74
2023/08/04 05:08:48;;;;;;;446.60;426.97;;;15.10;99.90;;;;;;4976560;28;20538;-74
2023/08/04 05:11:15;;;;;;;463.33;442.73;;;15.20;99.90;;;;;;4976395;28;20535;-74
2023/08/04 05:13:42;;;;;;;418.77;400.67;;;15.20;99.90;;;;;;4976324;28;20538;-73
2023/08/04 05:16:09;;;;;;;424.47;405.73;;;15.30;99.90;;;;;;4976460;28;20458;-74
2023/08/04 05:18:36;;;;;;;423.07;404.53;;;15.40;99.90;;;;;;4976138;28;20553;-74
2023/08/04 05:21:04;;;;;;;439.40;420.03;;;15.40;99.90;;;;;;4975939;28;20485;-74
2023/08/04 05:23:32;;;;;;;388.10;371.40;;;15.50;99.90;;;;;;4993148;28;21138;-73
2023/08/04 05:25:59;;;;;;;446.40;426.37;;;15.60;99.90;;;;;;4995802;28;20454;-74
2023/08/04 05:28:28;;;;;;;456.43;435.83;;;15.70;99.90;;;;;;4994177;28;20513;-74
2023/08/04 05:30:57;;;;;;;406.77;388.97;;;15.80;99.90;;;;;;4975951;28;20538;-73
2023/08/04 05:33:24;;;;;;;339.10;324.30;;;15.90;99.90;;;;;;4976990;28;20838;-73
2023/08/04 05:35:51;;;;;;;345.50;330.17;;;16.00;99.90;;;;;;4975842;28;20458;-72
2023/08/04 05:38:18;;;;;;;334.37;319.67;;;16.10;99.90;;;;;;4975953;28;21011;-73
2023/08/04 05:40:48;;;;;;;337.50;322.60;;;16.20;99.90;;;;;;4978314;28;20451;-73
2023/08/04 05:43:15;;;;;;;322.43;308.30;;;16.20;99.90;;;;;;4983620;28;20451;-73
2023/08/04 05:45:44;;;;;;;328.93;314.43;;;16.30;99.90;;;;;;4979464;28;20461;-73
2023/08/04 05:48:11;;;;;;;295.17;282.10;;;16.40;99.90;;;;;;4984337;28;20486;-73
2023/08/04 05:50:38;;;;;;;306.10;292.43;;;16.50;99.90;;;;;;4980190;28;20457;-73
2023/08/04 05:53:05;;;;;;;332.80;319.27;;;16.50;99.90;;;;;;4992291;28;20450;-73
2023/08/04 05:55:32;;;;;;;342.20;328.20;;;16.50;99.90;;;;;;4995164;28;20542;-73
2023/08/04 05:58:00;;;;;;;342.57;328.77;;;16.60;99.90;;;;;;4994947;28;20528;-73
2023/08/04 06:00:29;;;;;;;323.77;310.80;;;16.60;99.90;;;;;;4983595;28;20454;-72
2023/08/04 06:02:56;;;;;;;321.17;308.47;;;16.70;99.90;;;;;;4983591;28;20463;-73
2023/08/04 06:05:23;;;;;;;332.60;319.10;;;16.80;99.90;;;;;;4978173;28;20994;-73
2023/08/04 06:07:50;;;;;;;312.90;300.50;;;16.90;99.90;;;;;;4994299;28;20573;-73
2023/08/04 06:10:18;;;;;;;303.90;291.90;;;16.90;99.90;;;;;;4994369;28;20450;-73
2023/08/04 06:12:45;;;;;;;313.87;301.47;;;16.80;99.90;;;;;;4994182;28;20454;-73
2023/08/04 06:15:13;;;;;;;286.63;275.67;;;16.80;99.90;;;;;;4994230;28;20537;-73
2023/08/04 06:17:41;;;;;;;312.53;300.57;;;16.70;99.90;;;;;;4994434;28;20457;-73
2023/08/04 06:20:09;;;;;;;291.33;280.33;;;16.80;99.90;;;;;;4994412;28;20545;-73
2023/08/04 06:22:36;;;;;;;289.13;278.30;;;16.70;99.90;;;;;;4994144;28;20825;-73
2023/08/04 06:25:04;;;;;;;291.23;280.33;;;16.80;99.90;;;;;;4994448;28;20458;-73
2023/08/04 06:27:31;;;;;;;278.73;268.53;;;16.80;99.90;;;;;;4994411;28;20487;-72
2023/08/04 06:29:59;;;;;;;282.57;272.17;;;16.80;99.90;;;;;;4987145;28;20848;-72
2023/08/04 06:32:28;;;;;;;270.53;260.60;;;16.90;99.90;;;;;;4983613;28;20454;-73
2023/08/04 06:34:55;;;;;;;277.73;267.53;;;16.90;99.90;;;;;;4984757;28;20947;-74
2023/08/04 06:37:22;;;;;;;281.98;271.58;;;16.90;99.90;;;;;;4975165;28;20468;-74
2023/08/04 06:39:50;;;;;;;267.83;258.23;;;17.00;99.90;;;;;;4994127;28;20205;-69
2023/08/04 06:42:17;;;;;;;273.92;263.83;;;17.00;99.90;;;;;;4992954;28;20459;-71
2023/08/04 06:44:44;;;;;;;264.23;254.83;;;17.20;99.90;;;;;;4993042;28;20199;-71
2023/08/04 06:47:11;;;;;;;260.03;250.73;;;17.40;99.90;;;;;;4994096;28;20479;-71
2023/08/04 06:49:40;;;;;;;257.60;248.50;;;17.40;99.90;;;;;;4994178;28;20528;-71
2023/08/04 06:52:08;;;;;;;274.60;264.90;;;17.50;99.90;;;;;;4993862;28;20454;-71
2023/08/04 06:54:35;;;;;;;255.90;246.90;;;17.70;99.90;;;;;;4993988;28;20450;-71
2023/08/04 06:57:02;;;;;;;259.40;250.30;;;17.80;99.90;;;;;;4993658;28;20446;-71
2023/08/04 06:59:29;;;;;;;262.17;252.97;;;18.00;99.90;;;;;;4993589;28;20461;-71
2023/08/04 07:01:56;;;;;;;254.60;245.80;;;18.00;99.90;;;;;;4993780;28;20828;-71
2023/08/04 07:04:22;;;;;;;264.23;255.23;;;18.10;99.90;;;;;;4993799;28;20454;-71
2023/08/04 07:06:51;;;;;;;252.57;243.97;;;18.20;99.90;;;;;;4993565;28;20527;-70
2023/08/04 07:09:18;;;;;;;263.20;254.37;;;18.40;99.90;;;;;;4993548;28;20839;-71
2023/08/04 07:11:44;;;;;;;279.10;269.80;;;18.50;99.90;;;;;;4993603;28;20458;-71
2023/08/04 07:14:11;;;;;;;246.17;237.97;;;18.70;99.90;;;;;;4993544;28;20468;-71
2023/08/04 07:16:38;;;;;;;254.10;245.70;;;18.80;99.90;;;;;;4993435;28;20454;-72
2023/08/04 07:19:05;;;;;;;239.07;231.27;;;18.80;99.90;;;;;;4993342;28;20466;-71
2023/08/04 07:21:32;;;;;;;230.43;223.03;;;18.90;99.90;;;;;;4993239;28;20454;-71
2023/08/04 07:24:00;;;;;;;215.60;208.63;;;18.90;99.90;;;;;;4992987;28;20943;-71
2023/08/04 07:26:27;;;;;;;236.10;228.67;;;19.00;99.90;;;;;;4991793;28;20541;-71
2023/08/04 07:28:54;;;;;;;193.90;187.70;;;19.20;99.90;;;;;;4993022;28;20890;-71
2023/08/04 07:31:20;;;;;;;180.20;174.40;;;19.10;99.90;;;;;;4992946;28;20454;-71
2023/08/04 07:33:47;;;;;;;162.87;157.57;;;19.20;99.90;;;;;;4992965;28;20454;-71
2023/08/04 07:36:14;;;;;;;174.70;169.03;;;19.20;99.90;;;;;;4975763;28;20451;-71
2023/08/04 07:38:41;;;;;;;147.70;142.90;;;19.40;99.90;;;;;;4972985;28;20451;-70
2023/08/04 07:41:09;;;;;;;140.63;136.03;;;19.40;99.90;;;;;;4973519;28;20511;-70
2023/08/04 07:43:36;;;;;;;130.07;125.77;;;19.40;99.90;;;;;;4973705;28;20546;-70
2023/08/04 07:46:03;;;;;;;126.50;122.40;;;19.50;99.90;;;;;;4973764;28;21028;-70
2023/08/04 07:48:30;;;;;;;112.17;108.47;;;19.70;99.90;;;;;;4973778;28;20498;-70
2023/08/04 07:50:57;;;;;;;110.03;106.40;;;19.50;99.90;;;;;;4973587;28;20458;-70
2023/08/04 07:53:24;;;;;;;92.63;89.53;;;19.60;99.90;;;;;;4973933;28;20460;-70
2023/08/04 07:56:00;;;;;;;81.07;78.28;;;19.60;99.90;;;;;;4973545;28;20360;-70
2023/08/04 07:58:28;;;;;;;41.80;40.15;;;19.70;99.90;;;;;;4972518;28;20519;-70
2023/08/04 08:00:55;;;;;;;35.80;34.40;;;19.70;99.90;;;;;;4973167;28;20457;-70
2023/08/04 08:03:22;;;;;;;42.47;40.87;;;19.70;99.90;;;;;;4973553;28;20211;-70
2023/08/04 08:05:49;;;;;;;39.70;38.20;;;19.80;99.90;;;;;;4973685;28;20819;-70
2023/08/04 08:08:16;;;;;;;33.90;32.60;;;19.90;99.90;;;;;;4973389;28;20518;-70
2023/08/04 08:10:43;;;;;;;30.80;29.50;;;19.70;99.70;;;;;;4972676;28;20939;-70
2023/08/04 08:13:10;;;;;;;33.40;32.00;;;19.80;99.90;;;;;;4973406;28;20457;-70
2023/08/04 08:15:38;;;;;;;30.03;28.83;;;20.30;98.60;;;;;;4973594;28;20459;-69
2023/08/04 08:18:05;;;;;;;26.80;25.70;;;20.60;98.50;;;;;;4973170;28;20455;-70
2023/08/04 08:20:32;;;;;;;22.57;21.57;;;20.50;95.70;;;;;;4973303;28;20801;-71
2023/08/04 08:22:59;;;;;;;19.97;19.07;;;20.20;98.10;;;;;;4974022;28;20447;-70
2023/08/04 08:25:26;;;;;;;11.40;10.50;;;20.10;97.50;;;;;;4972715;28;20461;-70
2023/08/04 08:27:52;;;;;;;14.00;9.27;;;20.00;98.90;;;;;;4973204;28;20219;-70
2023/08/04 08:30:19;;;;;;;9.87;9.27;;;19.80;98.40;;;;;;4973226;28;20455;-73
2023/08/04 08:32:48;;;;;;;9.37;8.77;;;20.10;98.60;;;;;;4973128;28;20451;-73
2023/08/04 08:35:15;;;;;;;13.00;11.77;;;19.90;98.40;;;;;;4973247;28;20451;-73
2023/08/04 08:37:41;;;;;;;8.20;7.70;;;20.00;99.90;;;;;;4973078;28;20446;-72
2023/08/04 08:40:09;;;;;;;7.93;6.90;;;20.00;98.50;;;;;;4973288;28;20481;-73
2023/08/04 08:42:36;;;;;;;6.50;6.00;;;19.70;98.40;;;;;;4972993;28;20459;-73
2023/08/04 08:45:03;;;;;;;6.50;6.00;;;19.70;97.40;;;;;;4973250;28;20454;-72
2023/08/04 08:47:34;;;;;;;6.00;5.50;;;19.80;98.20;;;;;;4973119;28;20559;-74
2023/08/04 08:50:03;;;;;;;6.93;6.43;;;19.90;98.20;;;;;;4973010;28;20456;-73
2023/08/04 08:52:32;;;;;;;6.40;5.90;;;20.00;99.90;;;;;;4973157;28;20943;-74
2023/08/04 08:55:00;;;;;;;6.57;6.07;;;20.60;98.40;;;;;;4973051;28;20451;-73
2023/08/04 08:57:28;;;;;;;6.10;5.60;;;20.70;97.90;;;;;;4973150;28;20455;-73
2023/08/04 08:59:57;;;;;;;8.60;5.50;;;20.60;95.30;;;;;;4973008;28;20468;-73
2023/08/04 09:02:24;;;;;;;5.20;4.80;;;20.60;95.40;;;;;;4972808;28;20456;-73
2023/08/04 09:04:51;;;;;;;5.27;4.83;;;21.60;95.80;;;;;;4972923;28;20466;-74
2023/08/04 09:07:20;;;;;;;4.13;3.70;;;22.60;92.50;;;;;;4973099;28;20461;-73
2023/08/04 09:09:46;;;;;;;4.00;3.60;;;21.80;87.70;;;;;;4972793;28;20550;-73
2023/08/04 09:12:16;;;;;;;4.00;3.40;;;22.30;88.10;;;;;;4972922;28;20455;-73
2023/08/04 09:14:51;;;;;;;3.80;2.60;;;22.80;88.60;;;;;;4973368;28;20451;-72
2023/08/04 09:17:32;;;;;;;3.70;2.20;;;23.00;80.90;;;;;;4972650;28;20490;-73
2023/08/04 09:19:59;;;;;;;6.27;2.57;;;22.80;80.70;;;;;;4972809;28;20451;-73
2023/08/04 09:22:28;;;;;;;3.60;1.83;;;23.30;81.20;;;;;;4973322;28;20455;-74
2023/08/04 09:25:01;;;;;;;3.67;1.60;;;24.30;78.10;;;;;;4976337;28;20458;-73
2023/08/04 09:27:29;;;;;;;3.57;1.30;;;24.70;61.90;;;;;;4976576;28;20452;-73
2023/08/04 09:30:00;;;;;;;3.60;1.30;;;24.30;57.20;;;;;;4976341;28;20447;-72
2023/08/04 09:32:28;;;;;;;3.60;1.30;;;24.10;57.10;;;;;;4975880;28;20455;-74
2023/08/04 09:35:02;;;;;;;3.60;1.20;;;23.90;56.90;;;;;;4976101;28;20455;-74
2023/08/04 09:37:32;;;;;;;3.50;0.90;;;23.70;57.50;;;;;;4976044;28;20458;-72
2023/08/04 09:40:00;;;;;;;3.53;0.80;;;23.00;51.80;;;;;;4975728;28;20957;-74
2023/08/04 09:42:27;;;;;;;3.63;1.10;;;22.30;55.40;;;;;;4976423;28;21048;-71
2023/08/04 09:44:55;;;;;;;3.70;1.07;;;22.80;55.80;;;;;;4976186;28;20462;-71
2023/08/04 09:47:24;;;;;;;3.60;1.10;;;23.70;56.70;;;;;;4975818;28;20474;-71
2023/08/04 09:49:51;;;;;;;3.60;0.90;;;25.00;49.10;;;;;;4974737;28;20454;-71
2023/08/04 09:52:22;;;;;;;3.60;0.90;;;25.80;40.60;;;;;;4975532;28;20462;-71
2023/08/04 09:54:51;;;;;;;3.50;0.80;;;25.00;48.70;;;;;;4975800;28;20843;-73
2023/08/04 09:57:19;;;;;;;3.70;1.10;;;24.00;48.10;;;;;;4984132;28;20818;-74
2023/08/04 09:59:47;;;;;;;3.60;0.80;;;22.90;55.90;;;;;;4995132;28;20463;-73
2023/08/04 10:02:14;;;;;;;3.60;0.70;;;22.20;55.30;;;;;;4994885;28;20446;-74
2023/08/04 10:04:42;;;;;;;3.60;0.60;;;21.80;57.10;;;;;;4994988;28;20458;-72
2023/08/04 10:07:10;;;;;;;8.57;1.40;;;21.40;63.10;;;;;;4995258;28;20450;-72
2023/08/04 10:09:37;;;;;;;3.70;0.97;;;20.80;62.60;;;;;;4994820;28;20513;-74
2023/08/04 10:12:06;;;;;;;3.57;0.77;;;20.70;62.50;;;;;;4995131;28;20458;-72
2023/08/04 10:14:49;;;;;;;3.67;0.80;;;20.80;67.60;;;;;;4994838;28;20461;-73
2023/08/04 10:17:16;;;;;;;3.70;1.00;;;21.10;63.60;;;;;;4993373;28;20445;-73
2023/08/04 10:19:43;;;;;;;3.60;0.80;;;21.10;62.80;;;;;;4994107;28;20888;-74
2023/08/04 10:22:12;;;;;;;3.70;1.17;;;21.40;60.80;;;;;;4993923;28;20479;-73
2023/08/04 10:24:42;;;;;;;3.60;0.80;;;21.90;58.20;;;;;;4993701;28;20801;-73
2023/08/04 10:27:15;;;;;;;3.60;0.80;;;22.10;55.20;;;;;;4994010;28;20453;-73
2023/08/04 10:29:42;;;;;;;5.40;2.23;;;22.50;55.60;;;;;;4994290;28;21062;-73
2023/08/04 10:32:10;;;;;;;3.60;0.80;;;22.70;55.60;;;;;;4994187;28;20485;-73
2023/08/04 10:34:38;;;;;;;3.50;0.70;;;22.60;46.80;;;;;;4993990;28;20541;-73
2023/08/04 10:37:09;;;;;;;3.60;0.70;;;22.80;50.60;;;;;;4993997;28;20457;-73
2023/08/04 10:39:37;;;;;;;4.13;1.23;;;22.80;47.00;;;;;;4994222;28;20561;-73
2023/08/04 10:42:21;;;;;;;3.70;1.00;;;22.40;44.10;;;;;;4993777;28;20833;-73
2023/08/04 10:44:53;;;;;;;4.17;1.53;;;22.40;43.40;;;;;;4993818;28;20450;-74
2023/08/04 10:47:31;;;;;;;3.60;0.70;;;22.90;43.60;;;;;;4993390;28;20454;-73
2023/08/04 10:49:59;;;;;;;3.70;0.80;;;23.20;38.30;;;;;;4993623;28;20482;-73
2023/08/04 10:52:27;;;;;;;3.60;0.80;;;23.00;38.10;;;;;;4994194;28;20458;-72
2023/08/04 10:54:54;;;;;;;3.97;1.00;;;23.20;38.30;;;;;;4993667;28;20539;-73
2023/08/04 10:57:24;;;;;;;3.80;1.00;;;23.70;38.70;;;;;;4993653;28;20458;-74
2023/08/04 10:59:51;;;;;;;3.53;0.70;;;24.10;30.00;;;;;;4992954;28;20453;-73
2023/08/04 11:02:19;;;;;;;3.70;0.80;;;24.30;25.70;;;;;;4993065;28;20839;-73
2023/08/04 11:04:47;;;;;;;3.70;0.70;;;25.40;23.50;;;;;;4993497;28;20457;-74
2023/08/04 11:07:14;;;;;;;3.70;0.80;;;26.00;23.80;;;;;;4993457;28;20450;-74
2023/08/04 11:09:42;;;;;;;3.70;0.70;;;26.30;16.50;;;;;;4993928;28;20484;-74
2023/08/04 11:12:09;;;;;;;4.67;1.07;;;26.90;16.80;;;;;;4993553;28;20453;-73
2023/08/04 11:14:38;;;;;;;3.73;0.97;;;26.90;16.90;;;;;;4994002;28;20505;-73
2023/08/04 11:17:12;;;;;;;3.70;0.70;;;26.70;14.80;;;;;;4993618;28;20452;-74
2023/08/04 11:19:39;;;;;;;4.67;0.83;;;25.30;15.90;;;;;;4993475;28;20442;-73
2023/08/04 11:22:12;;;;;;;6.57;1.47;;;24.50;22.90;;;;;;4993320;28;20535;-73
2023/08/04 11:24:39;;;;;;;3.70;0.60;;;23.50;29.50;;;;;;4993717;28;20450;-73
2023/08/04 11:27:08;;;;;;;3.70;0.60;;;23.00;30.80;;;;;;4993622;28;20766;-73
2023/08/04 11:29:35;;;;;;;3.77;0.73;;;22.50;37.60;;;;;;4991638;28;20490;-74
2023/08/04 11:32:08;;;;;;;3.70;0.60;;;22.40;37.50;;;;;;4992925;28;20542;-73
2023/08/04 11:34:35;;;;;;;4.00;0.90;;;22.20;33.10;;;;;;4993124;28;20463;-73
2023/08/04 11:37:02;;;;;;;4.00;1.13;;;22.10;34.70;;;;;;4992809;28;20998;-73
2023/08/04 11:39:29;;;;;;;59.73;2.17;;;22.30;32.00;;;;;;4992932;28;20814;-73
2023/08/04 11:41:56;;;;;;;3.90;1.00;;;22.40;28.80;;;;;;4993014;28;20454;-73
2023/08/04 11:44:23;;;;;;;3.70;0.60;;;22.80;29.00;;;;;;4992724;28;20461;-73
2023/08/04 11:46:50;;;;;;;3.67;0.60;;;23.30;30.30;;;;;;4991912;28;20537;-73
2023/08/04 11:49:18;;;;;;;4.77;1.27;;;23.90;29.80;;;;;;4992461;28;20510;-73
2023/08/04 11:51:46;;;;;;;4.90;1.73;;;24.40;30.10;;;;;;4992740;28;20456;-71
2023/08/04 11:54:23;;;;;;;6.10;2.20;;;24.60;23.00;;;;;;4992657;28;20540;-73
2023/08/04 11:56:54;;;;;;;4.60;1.33;;;24.60;15.50;;;;;;4992634;28;20484;-72
2023/08/04 11:59:21;;;;;;;4.73;1.57;;;24.40;15.40;;;;;;4992716;28;20861;-73
2023/08/04 12:01:48;;;;;;;5.77;1.97;;;24.60;15.50;;;;;;4992215;28;20455;-73
2023/08/04 12:04:24;;;;;;;5.90;1.63;;;25.20;15.90;;;;;;4992767;28;20497;-73
2023/08/04 12:06:59;;;;;;;4.70;1.40;;;24.90;9.90;;;;;;4992599;28;20464;-73
2023/08/04 12:09:26;;;;;;;7.67;2.00;;;25.50;16.00;;;;;;4992257;28;20481;-73
2023/08/04 12:11:53;;;;;;;5.73;1.93;;;25.60;10.90;;;;;;4992360;28;20822;-74
2023/08/04 12:14:20;;;;;;;8.50;1.90;;;25.40;12.90;;;;;;4992263;28;20646;-73
2023/08/04 12:16:52;;;;;;;5.70;1.93;;;25.30;11.40;;;;;;4992408;28;20450;-72
2023/08/04 12:19:20;;;;;;;5.83;1.90;;;25.30;12.00;;;;;;4992247;28;20465;-72
2023/08/04 12:21:49;;;;;;;5.33;2.07;;;25.10;15.80;;;;;;4992242;28;20454;-72
2023/08/04 12:24:16;;;;;;;8.00;2.80;;;24.30;17.70;;;;;;4992401;28;20825;-73